Decoded Metar for LEVD (VALLADOLID in SPAIN) (IATA:VLL) | Meteo·Mobile Aviation Weather
aviador You're here:

LEVD Decoded Metar

VALLADOLID in SPAIN
Report Time2019-10-22 13:30:00
UTC Time2019-10-22 14:06:13
Flight Rules vfr VFR
Wind060° at 12 kt
W.Decomp.*RWY 05: 11.7 kt HW 2.5 kt RCW
RWY 15: 0.4 kt HW 12 kt LCW
Visibility9999 m
Phenomena:N/A
Clouds:Scattered 023 Hf
Expected CloudBase > 1,600 ft AGL from Temp-Dew spread
CeilingNone
Temp10°C (ISA +1)
Dew Point06°C (76% RH)
AAT4.8°C
QNH1014 hPa
Density Alt2,972 ft
Elevation2,802 ft
Report Wrong Elevation
Raw Report
LEVD 221330Z 06012KT 9999 SCT023 10/06 Q1014=

Extra information for LEVD:More info

Metar Taf Metar & Taf Last 4 Metars F.Rules Stats Wind Profile Meteogram Temp Stats Airport Information Weather charts Add Link Nearby VenuesMetar ALERT Operation Metar Decoded Social comments